sensor_id;sensor_type;location;lat;lon;timestamp;pressure;altitude;pressure_sealevel;temperature;humidity
27685;BME280;46113;50.130;8.526;2023-03-04T00:00:46;99793.66;;;-2.26;69.28
27685;BME280;46113;50.130;8.526;2023-03-04T00:03:13;99796.28;;;-2.17;68.07
27685;BME280;46113;50.130;8.526;2023-03-04T00:05:41;99798.00;;;-2.19;68.09
27685;BME280;46113;50.130;8.526;2023-03-04T00:08:07;99798.72;;;-2.59;69.58
27685;BME280;46113;50.130;8.526;2023-03-04T00:10:34;99794.47;;;-2.43;68.88
27685;BME280;46113;50.130;8.526;2023-03-04T00:13:01;99799.56;;;-2.60;69.80
27685;BME280;46113;50.130;8.526;2023-03-04T00:15:27;99791.81;;;-2.58;69.90
27685;BME280;46113;50.130;8.526;2023-03-04T00:17:54;99796.16;;;-2.56;69.09
27685;BME280;46113;50.130;8.526;2023-03-04T00:20:21;99796.03;;;-2.76;70.44
27685;BME280;46113;50.130;8.526;2023-03-04T00:22:48;99798.72;;;-2.53;69.60
27685;BME280;46113;50.130;8.526;2023-03-04T00:25:14;99800.44;;;-2.58;69.85
27685;BME280;46113;50.130;8.526;2023-03-04T00:27:41;99791.84;;;-2.51;69.52
27685;BME280;46113;50.130;8.526;2023-03-04T00:30:08;99784.91;;;-2.56;69.85
27685;BME280;46113;50.130;8.526;2023-03-04T00:32:35;99787.47;;;-2.58;69.92
27685;BME280;46113;50.130;8.526;2023-03-04T00:35:03;99790.16;;;-2.45;69.90
27685;BME280;46113;50.130;8.526;2023-03-04T00:37:29;99785.72;;;-2.71;69.76
27685;BME280;46113;50.130;8.526;2023-03-04T00:39:56;99781.44;;;-2.57;69.98
27685;BME280;46113;50.130;8.526;2023-03-04T00:42:23;99785.66;;;-2.78;70.98
27685;BME280;46113;50.130;8.526;2023-03-04T00:44:50;99785.66;;;-2.79;70.30
27685;BME280;46113;50.130;8.526;2023-03-04T00:47:17;99783.94;;;-2.79;70.15
27685;BME280;46113;50.130;8.526;2023-03-04T00:49:44;99783.94;;;-2.82;70.44
27685;BME280;46113;50.130;8.526;2023-03-04T00:52:10;99780.53;;;-2.68;70.35
27685;BME280;46113;50.130;8.526;2023-03-04T00:54:37;99781.28;;;-2.91;69.97
27685;BME280;46113;50.130;8.526;2023-03-04T00:57:04;99781.94;;;-3.20;71.43
27685;BME280;46113;50.130;8.526;2023-03-04T00:59:30;99780.25;;;-3.15;71.19
27685;BME280;46113;50.130;8.526;2023-03-04T01:01:58;99778.50;;;-3.18;70.60
27685;BME280;46113;50.130;8.526;2023-03-04T01:04:25;99779.44;;;-3.11;70.55
27685;BME280;46113;50.130;8.526;2023-03-04T01:06:52;99771.56;;;-3.23;70.85
27685;BME280;46113;50.130;8.526;2023-03-04T01:09:19;99776.75;;;-3.22;70.72
27685;BME280;46113;50.130;8.526;2023-03-04T01:11:45;99772.41;;;-3.26;70.26
27685;BME280;46113;50.130;8.526;2023-03-04T01:14:12;99761.19;;;-3.26;70.00
27685;BME280;46113;50.130;8.526;2023-03-04T01:16:39;99764.63;;;-3.29;69.74
27685;BME280;46113;50.130;8.526;2023-03-04T01:19:05;99768.91;;;-3.36;70.05
27685;BME280;46113;50.130;8.526;2023-03-04T01:21:32;99768.81;;;-3.45;70.21
27685;BME280;46113;50.130;8.526;2023-03-04T01:23:59;99764.47;;;-3.49;70.28
27685;BME280;46113;50.130;8.526;2023-03-04T01:26:25;99763.56;;;-3.58;70.01
27685;BME280;46113;50.130;8.526;2023-03-04T01:28:52;99765.25;;;-3.63;70.60
27685;BME280;46113;50.130;8.526;2023-03-04T01:31:19;99765.88;;;-3.87;71.91
27685;BME280;46113;50.130;8.526;2023-03-04T01:33:45;99759.94;;;-3.75;71.39
27685;BME280;46113;50.130;8.526;2023-03-04T01:36:12;99753.16;;;-3.62;71.21
27685;BME280;46113;50.130;8.526;2023-03-04T01:38:38;99750.59;;;-3.61;71.75
27685;BME280;46113;50.130;8.526;2023-03-04T01:41:06;99742.78;;;-3.64;71.40
27685;BME280;46113;50.130;8.526;2023-03-04T01:43:34;99745.56;;;-3.39;70.74
27685;BME280;46113;50.130;8.526;2023-03-04T01:46:02;99740.44;;;-3.31;71.00
27685;BME280;46113;50.130;8.526;2023-03-04T01:48:37;99737.03;;;-3.25;70.84
27685;BME280;46113;50.130;8.526;2023-03-04T01:51:05;99734.53;;;-3.13;70.23
27685;BME280;46113;50.130;8.526;2023-03-04T01:53:36;99730.22;;;-3.08;70.12
27685;BME280;46113;50.130;8.526;2023-03-04T01:56:29;99723.44;;;-2.95;70.17
27685;BME280;46113;50.130;8.526;2023-03-04T01:59:18;99724.31;;;-2.88;69.94
27685;BME280;46113;50.130;8.526;2023-03-04T02:01:52;99731.25;;;-2.87;69.67
27685;BME280;46113;50.130;8.526;2023-03-04T02:04:23;99726.91;;;-2.86;70.07
27685;BME280;46113;50.130;8.526;2023-03-04T02:06:51;99721.75;;;-2.79;69.33
27685;BME280;46113;50.130;8.526;2023-03-04T02:09:19;99722.59;;;-2.83;69.79
27685;BME280;46113;50.130;8.526;2023-03-04T02:11:47;99714.81;;;-2.92;69.52
27685;BME280;46113;50.130;8.526;2023-03-04T02:14:18;99707.97;;;-2.79;69.07
27685;BME280;46113;50.130;8.526;2023-03-04T02:16:45;99712.31;;;-2.64;68.90
27685;BME280;46113;50.130;8.526;2023-03-04T02:19:47;99706.31;;;-2.60;69.14
27685;BME280;46113;50.130;8.526;2023-03-04T02:22:16;99709.72;;;-2.59;69.23
27685;BME280;46113;50.130;8.526;2023-03-04T02:24:59;99708.88;;;-2.62;69.04
27685;BME280;46113;50.130;8.526;2023-03-04T02:27:27;99702.00;;;-2.49;68.88
27685;BME280;46113;50.130;8.526;2023-03-04T02:29:54;99704.59;;;-2.42;68.26
27685;BME280;46113;50.130;8.526;2023-03-04T02:32:20;99712.31;;;-2.67;69.48
27685;BME280;46113;50.130;8.526;2023-03-04T02:34:48;99701.00;;;-2.91;69.43
27685;BME280;46113;50.130;8.526;2023-03-04T02:37:17;99699.28;;;-2.92;70.89
27685;BME280;46113;50.130;8.526;2023-03-04T02:39:46;99696.75;;;-2.77;70.35
27685;BME280;46113;50.130;8.526;2023-03-04T02:42:14;99693.34;;;-2.58;69.47
27685;BME280;46113;50.130;8.526;2023-03-04T02:44:43;99694.00;;;-3.08;70.58
27685;BME280;46113;50.130;8.526;2023-03-04T02:47:14;99706.16;;;-2.93;70.32
27685;BME280;46113;50.130;8.526;2023-03-04T02:49:43;99696.75;;;-2.66;69.58
27685;BME280;46113;50.130;8.526;2023-03-04T02:52:17;99698.50;;;-2.63;70.00
27685;BME280;46113;50.130;8.526;2023-03-04T02:54:45;99691.66;;;-2.41;69.09
27685;BME280;46113;50.130;8.526;2023-03-04T02:57:13;99682.19;;;-2.32;68.09
27685;BME280;46113;50.130;8.526;2023-03-04T02:59:43;99684.72;;;-2.53;68.52
27685;BME280;46113;50.130;8.526;2023-03-04T03:02:15;99689.03;;;-2.58;68.73
27685;BME280;46113;50.130;8.526;2023-03-04T03:04:41;99688.13;;;-2.63;69.00
27685;BME280;46113;50.130;8.526;2023-03-04T03:07:12;99688.19;;;-2.54;69.30
27685;BME280;46113;50.130;8.526;2023-03-04T03:09:39;99694.88;;;-3.06;70.63
27685;BME280;46113;50.130;8.526;2023-03-04T03:12:06;99698.50;;;-2.68;69.31
27685;BME280;46113;50.130;8.526;2023-03-04T03:14:33;99694.16;;;-2.77;69.32
27685;BME280;46113;50.130;8.526;2023-03-04T03:17:02;99696.63;;;-3.02;70.45
27685;BME280;46113;50.130;8.526;2023-03-04T03:19:30;99701.06;;;-2.76;70.26
27685;BME280;46113;50.130;8.526;2023-03-04T03:21:59;99699.31;;;-2.78;69.55
27685;BME280;46113;50.130;8.526;2023-03-04T03:24:26;99701.97;;;-2.64;70.20
27685;BME280;46113;50.130;8.526;2023-03-04T03:26:52;99692.50;;;-2.51;69.10
27685;BME280;46113;50.130;8.526;2023-03-04T03:29:19;99691.66;;;-2.52;69.35
27685;BME280;46113;50.130;8.526;2023-03-04T03:31:45;99695.13;;;-2.40;69.18
27685;BME280;46113;50.130;8.526;2023-03-04T03:34:12;99691.66;;;-2.45;69.52
27685;BME280;46113;50.130;8.526;2023-03-04T03:36:40;99684.75;;;-2.40;68.83
27685;BME280;46113;50.130;8.526;2023-03-04T03:39:07;99692.56;;;-2.32;69.22
27685;BME280;46113;50.130;8.526;2023-03-04T03:41:33;99687.41;;;-2.23;68.13
27685;BME280;46113;50.130;8.526;2023-03-04T03:44:00;99689.09;;;-2.30;68.81
27685;BME280;46113;50.130;8.526;2023-03-04T03:46:27;99682.09;;;-2.65;69.49
27685;BME280;46113;50.130;8.526;2023-03-04T03:48:55;99687.38;;;-2.39;69.31
27685;BME280;46113;50.130;8.526;2023-03-04T03:51:21;99679.59;;;-2.22;68.15
27685;BME280;46113;50.130;8.526;2023-03-04T03:53:48;99683.03;;;-2.38;68.46
27685;BME280;46113;50.130;8.526;2023-03-04T03:56:15;99687.28;;;-2.67;70.05
27685;BME280;46113;50.130;8.526;2023-03-04T03:58:41;99686.50;;;-2.36;69.52
27685;BME280;46113;50.130;8.526;2023-03-04T04:01:08;99685.63;;;-2.35;69.01
27685;BME280;46113;50.130;8.526;2023-03-04T04:03:35;99683.06;;;-2.26;68.54
27685;BME280;46113;50.130;8.526;2023-03-04T04:06:02;99683.03;;;-2.35;68.83
27685;BME280;46113;50.130;8.526;2023-03-04T04:08:28;99676.13;;;-2.27;68.83
27685;BME280;46113;50.130;8.526;2023-03-04T04:10:55;99674.44;;;-2.18;68.43
27685;BME280;46113;50.130;8.526;2023-03-04T04:13:22;99677.00;;;-2.36;69.19
27685;BME280;46113;50.130;8.526;2023-03-04T04:15:52;99669.25;;;-2.18;68.61
27685;BME280;46113;50.130;8.526;2023-03-04T04:18:19;99671.00;;;-2.11;68.57
27685;BME280;46113;50.130;8.526;2023-03-04T04:20:46;99673.56;;;-2.14;68.17
27685;BME280;46113;50.130;8.526;2023-03-04T04:23:12;99678.72;;;-2.38;68.78
27685;BME280;46113;50.130;8.526;2023-03-04T04:25:39;99663.97;;;-2.62;69.75
27685;BME280;46113;50.130;8.526;2023-03-04T04:28:09;99676.91;;;-2.62;70.59
27685;BME280;46113;50.130;8.526;2023-03-04T04:30:35;99672.66;;;-2.38;69.92
27685;BME280;46113;50.130;8.526;2023-03-04T04:33:02;99671.72;;;-2.70;70.45
27685;BME280;46113;50.130;8.526;2023-03-04T04:35:34;99671.78;;;-2.46;69.87
27685;BME280;46113;50.130;8.526;2023-03-04T04:38:01;99666.63;;;-2.34;69.82
27685;BME280;46113;50.130;8.526;2023-03-04T04:40:28;99666.66;;;-2.31;69.43
27685;BME280;46113;50.130;8.526;2023-03-04T04:42:55;99670.94;;;-2.38;69.62
27685;BME280;46113;50.130;8.526;2023-03-04T04:45:23;99665.75;;;-2.31;69.50
27685;BME280;46113;50.130;8.526;2023-03-04T04:47:54;99659.72;;;-2.30;68.74
27685;BME280;46113;50.130;8.526;2023-03-04T04:50:23;99655.41;;;-2.25;69.43
27685;BME280;46113;50.130;8.526;2023-03-04T04:52:50;99662.31;;;-2.21;68.32
27685;BME280;46113;50.130;8.526;2023-03-04T04:55:17;99660.59;;;-2.36;69.23
27685;BME280;46113;50.130;8.526;2023-03-04T04:57:43;99662.31;;;-2.27;69.21
27685;BME280;46113;50.130;8.526;2023-03-04T05:00:11;99658.00;;;-2.20;69.12
27685;BME280;46113;50.130;8.526;2023-03-04T05:02:37;99651.06;;;-2.37;70.06
27685;BME280;46113;50.130;8.526;2023-03-04T05:05:06;99656.28;;;-2.32;69.62
27685;BME280;46113;50.130;8.526;2023-03-04T05:07:33;99654.53;;;-2.23;69.16
27685;BME280;46113;50.130;8.526;2023-03-04T05:09:59;99651.06;;;-2.28;69.23
27685;BME280;46113;50.130;8.526;2023-03-04T05:12:26;99658.00;;;-2.28;69.06
27685;BME280;46113;50.130;8.526;2023-03-04T05:14:53;99659.72;;;-2.37;69.46
27685;BME280;46113;50.130;8.526;2023-03-04T05:17:19;99656.25;;;-2.28;69.04
27685;BME280;46113;50.130;8.526;2023-03-04T05:19:46;99663.97;;;-2.60;70.36
27685;BME280;46113;50.130;8.526;2023-03-04T05:22:12;99652.78;;;-2.27;69.77
27685;BME280;46113;50.130;8.526;2023-03-04T05:24:39;99658.88;;;-2.03;69.26
27685;BME280;46113;50.130;8.526;2023-03-04T05:27:05;99658.03;;;-1.97;68.28
27685;BME280;46113;50.130;8.526;2023-03-04T05:29:32;99657.16;;;-2.09;68.51
27685;BME280;46113;50.130;8.526;2023-03-04T05:31:59;99653.69;;;-2.18;68.97
27685;BME280;46113;50.130;8.526;2023-03-04T05:34:25;99649.38;;;-2.12;68.44
27685;BME280;46113;50.130;8.526;2023-03-04T05:36:52;99650.25;;;-1.99;68.95
27685;BME280;46113;50.130;8.526;2023-03-04T05:39:18;99647.66;;;-1.97;68.19
27685;BME280;46113;50.130;8.526;2023-03-04T05:41:45;99656.28;;;-1.93;68.37
27685;BME280;46113;50.130;8.526;2023-03-04T05:44:12;99654.53;;;-1.76;67.88
27685;BME280;46113;50.130;8.526;2023-03-04T05:46:38;99660.63;;;-1.89;68.24
27685;BME280;46113;50.130;8.526;2023-03-04T05:49:05;99656.28;;;-1.97;67.71
27685;BME280;46113;50.130;8.526;2023-03-04T05:51:31;99658.03;;;-1.88;67.97
27685;BME280;46113;50.130;8.526;2023-03-04T05:53:58;99651.09;;;-1.79;67.45
27685;BME280;46113;50.130;8.526;2023-03-04T05:56:25;99645.91;;;-1.78;67.54
27685;BME280;46113;50.130;8.526;2023-03-04T05:58:51;99652.84;;;-1.71;67.25
27685;BME280;46113;50.130;8.526;2023-03-04T06:01:18;99650.22;;;-1.86;66.94
27685;BME280;46113;50.130;8.526;2023-03-04T06:03:44;99649.38;;;-1.80;67.95
27685;BME280;46113;50.130;8.526;2023-03-04T06:06:14;99658.03;;;-1.71;67.36
27685;BME280;46113;50.130;8.526;2023-03-04T06:08:40;99662.31;;;-1.63;67.13
27685;BME280;46113;50.130;8.526;2023-03-04T06:11:07;99662.34;;;-1.60;66.73
27685;BME280;46113;50.130;8.526;2023-03-04T06:13:35;99661.44;;;-1.64;66.42
27685;BME280;46113;50.130;8.526;2023-03-04T06:16:02;99664.94;;;-1.82;66.61
27685;BME280;46113;50.130;8.526;2023-03-04T06:18:28;99672.72;;;-1.73;66.82
27685;BME280;46113;50.130;8.526;2023-03-04T06:21:00;99678.78;;;-1.88;67.08
27685;BME280;46113;50.130;8.526;2023-03-04T06:23:27;99681.38;;;-1.72;66.24
27685;BME280;46113;50.130;8.526;2023-03-04T06:25:56;99691.75;;;-1.64;66.42
27685;BME280;46113;50.130;8.526;2023-03-04T06:28:23;99685.69;;;-1.62;66.44
27685;BME280;46113;50.130;8.526;2023-03-04T06:30:51;99683.94;;;-2.08;67.84
27685;BME280;46113;50.130;8.526;2023-03-04T06:33:18;99694.31;;;-1.77;67.79
27685;BME280;46113;50.130;8.526;2023-03-04T06:35:45;99695.19;;;-1.69;67.29
27685;BME280;46113;50.130;8.526;2023-03-04T06:38:11;99702.97;;;-1.53;67.07
27685;BME280;46113;50.130;8.526;2023-03-04T06:40:38;99699.50;;;-1.52;66.76
27685;BME280;46113;50.130;8.526;2023-03-04T06:43:05;99696.94;;;-1.74;66.92
27685;BME280;46113;50.130;8.526;2023-03-04T06:45:32;99696.06;;;-1.60;66.99
27685;BME280;46113;50.130;8.526;2023-03-04T06:47:58;99698.66;;;-1.59;67.00
27685;BME280;46113;50.130;8.526;2023-03-04T06:50:25;99703.84;;;-1.79;67.03
27685;BME280;46113;50.130;8.526;2023-03-04T06:52:51;99706.44;;;-1.46;66.64
27685;BME280;46113;50.130;8.526;2023-03-04T06:55:19;99707.28;;;-1.36;67.08
27685;BME280;46113;50.130;8.526;2023-03-04T06:57:54;99711.63;;;-1.40;66.81
27685;BME280;46113;50.130;8.526;2023-03-04T07:00:21;99709.88;;;-1.32;66.50
27685;BME280;46113;50.130;8.526;2023-03-04T07:02:50;99711.59;;;-1.43;66.32
27685;BME280;46113;50.130;8.526;2023-03-04T07:05:20;99714.19;;;-1.32;66.69
27685;BME280;46113;50.130;8.526;2023-03-04T07:07:46;99709.81;;;-1.13;66.10
27685;BME280;46113;50.130;8.526;2023-03-04T07:10:18;99715.03;;;-1.11;66.04
27685;BME280;46113;50.130;8.526;2023-03-04T07:12:45;99712.47;;;-1.38;68.15
27685;BME280;46113;50.130;8.526;2023-03-04T07:15:11;99705.53;;;-1.26;66.84
27685;BME280;46113;50.130;8.526;2023-03-04T07:17:38;99715.03;;;-1.08;66.17
27685;BME280;46113;50.130;8.526;2023-03-04T07:20:05;99717.59;;;-1.02;65.94
27685;BME280;46113;50.130;8.526;2023-03-04T07:22:32;99716.78;;;-1.20;66.33
27685;BME280;46113;50.130;8.526;2023-03-04T07:24:58;99715.88;;;-1.14;65.92
27685;BME280;46113;50.130;8.526;2023-03-04T07:27:25;99717.56;;;-0.83;65.76
27685;BME280;46113;50.130;8.526;2023-03-04T07:29:52;99723.56;;;-0.75;65.41
27685;BME280;46113;50.130;8.526;2023-03-04T07:32:18;99713.25;;;-0.94;65.77
27685;BME280;46113;50.130;8.526;2023-03-04T07:34:45;99721.84;;;-0.78;65.69
27685;BME280;46113;50.130;8.526;2023-03-04T07:37:12;99713.94;;;-0.51;64.88
27685;BME280;46113;50.130;8.526;2023-03-04T07:39:38;99720.81;;;-0.39;64.91
27685;BME280;46113;50.130;8.526;2023-03-04T07:42:05;99720.72;;;-0.24;64.55
27685;BME280;46113;50.130;8.526;2023-03-04T07:44:38;99726.19;;;-0.78;64.90
27685;BME280;46113;50.130;8.526;2023-03-04T07:47:04;99725.25;;;-0.60;64.64
27685;BME280;46113;50.130;8.526;2023-03-04T07:49:31;99732.06;;;-0.32;63.39
27685;BME280;46113;50.130;8.526;2023-03-04T07:52:03;99727.69;;;-0.27;63.10
27685;BME280;46113;50.130;8.526;2023-03-04T07:54:30;99736.47;;;-0.50;63.46
27685;BME280;46113;50.130;8.526;2023-03-04T07:56:57;99727.75;;;-0.33;64.01
27685;BME280;46113;50.130;8.526;2023-03-04T07:59:35;99726.78;;;-0.21;63.04
27685;BME280;46113;50.130;8.526;2023-03-04T08:02:29;99733.94;;;-0.67;63.15
27685;BME280;46113;50.130;8.526;2023-03-04T08:05:08;99728.88;;;-1.14;63.50
27685;BME280;46113;50.130;8.526;2023-03-04T08:07:35;99734.81;;;-0.64;62.56
27685;BME280;46113;50.130;8.526;2023-03-04T08:10:03;99727.75;;;-0.35;61.72
27685;BME280;46113;50.130;8.526;2023-03-04T08:12:30;99735.72;;;-0.77;61.78
27685;BME280;46113;50.130;8.526;2023-03-04T08:14:56;99729.41;;;-0.29;62.03
27685;BME280;46113;50.130;8.526;2023-03-04T08:17:23;99732.97;;;-0.43;62.67
27685;BME280;46113;50.130;8.526;2023-03-04T08:19:49;99734.00;;;-0.87;63.14
27685;BME280;46113;50.130;8.526;2023-03-04T08:22:16;99733.94;;;-0.66;62.98
27685;BME280;46113;50.130;8.526;2023-03-04T08:24:43;99733.78;;;-0.31;61.98
27685;BME280;46113;50.130;8.526;2023-03-04T08:27:09;99731.25;;;-0.50;62.64
27685;BME280;46113;50.130;8.526;2023-03-04T08:29:36;99739.09;;;-0.55;62.54
27685;BME280;46113;50.130;8.526;2023-03-04T08:32:03;99741.69;;;-0.55;61.88
27685;BME280;46113;50.130;8.526;2023-03-04T08:34:30;99732.13;;;-0.51;61.48
27685;BME280;46113;50.130;8.526;2023-03-04T08:36:56;99744.22;;;-0.42;61.67
27685;BME280;46113;50.130;8.526;2023-03-04T08:39:23;99744.22;;;-0.36;61.02
27685;BME280;46113;50.130;8.526;2023-03-04T08:41:50;99740.75;;;-0.35;61.60
27685;BME280;46113;50.130;8.526;2023-03-04T08:44:16;99744.06;;;-0.10;60.11
27685;BME280;46113;50.130;8.526;2023-03-04T08:46:43;99744.00;;;0.05;60.03
27685;BME280;46113;50.130;8.526;2023-03-04T08:49:11;99730.03;;;0.15;59.84
27685;BME280;46113;50.130;8.526;2023-03-04T08:51:38;99734.53;;;-0.11;60.61
27685;BME280;46113;50.130;8.526;2023-03-04T08:54:05;99734.34;;;0.16;60.58
27685;BME280;46113;50.130;8.526;2023-03-04T08:56:32;99737.22;;;-0.29;59.98
27685;BME280;46113;50.130;8.526;2023-03-04T08:58:58;99738.94;;;-0.22;60.40
27685;BME280;46113;50.130;8.526;2023-03-04T09:01:25;99749.19;;;-0.02;60.33
27685;BME280;46113;50.130;8.526;2023-03-04T09:03:52;99745.84;;;-0.21;60.50
27685;BME280;46113;50.130;8.526;2023-03-04T09:06:19;99740.31;;;0.32;59.25
27685;BME280;46113;50.130;8.526;2023-03-04T09:08:45;99741.91;;;0.49;58.32
27685;BME280;46113;50.130;8.526;2023-03-04T09:11:12;99739.72;;;-0.12;59.03
27685;BME280;46113;50.130;8.526;2023-03-04T09:13:39;99739.78;;;-0.20;58.90
27685;BME280;46113;50.130;8.526;2023-03-04T09:16:13;99743.25;;;-0.24;58.94
27685;BME280;46113;50.130;8.526;2023-03-04T09:18:40;99743.13;;;0.02;59.53
27685;BME280;46113;50.130;8.526;2023-03-04T09:21:08;99740.31;;;0.32;59.17
27685;BME280;46113;50.130;8.526;2023-03-04T09:23:35;99742.94;;;0.26;58.31
27685;BME280;46113;50.130;8.526;2023-03-04T09:26:25;99743.00;;;0.20;58.65
27685;BME280;46113;50.130;8.526;2023-03-04T09:29:00;99739.38;;;0.41;58.03
27685;BME280;46113;50.130;8.526;2023-03-04T09:31:28;99736.63;;;0.56;57.60
27685;BME280;46113;50.130;8.526;2023-03-04T09:33:57;99746.50;;;0.14;59.04
27685;BME280;46113;50.130;8.526;2023-03-04T09:36:25;99730.34;;;-0.38;60.02
27685;BME280;46113;50.130;8.526;2023-03-04T09:38:51;99738.78;;;0.03;58.27
27685;BME280;46113;50.130;8.526;2023-03-04T09:41:24;99735.41;;;-0.08;58.94
27685;BME280;46113;50.130;8.526;2023-03-04T09:43:53;99740.41;;;0.16;58.52
27685;BME280;46113;50.130;8.526;2023-03-04T09:46:31;99735.97;;;0.34;58.51
27685;BME280;46113;50.130;8.526;2023-03-04T09:48:59;99738.69;;;0.15;58.69
27685;BME280;46113;50.130;8.526;2023-03-04T09:51:51;99736.09;;;0.14;58.89
27685;BME280;46113;50.130;8.526;2023-03-04T09:54:29;99735.94;;;0.36;58.89
27685;BME280;46113;50.130;8.526;2023-03-04T09:57:29;99733.88;;;0.72;58.21
27685;BME280;46113;50.130;8.526;2023-03-04T10:00:18;99726.16;;;0.64;58.47
27685;BME280;46113;50.130;8.526;2023-03-04T10:05:32;99731.63;;;0.32;58.35
27685;BME280;46113;50.130;8.526;2023-03-04T10:08:09;99744.84;;;0.05;58.86
27685;BME280;46113;50.130;8.526;2023-03-04T10:10:42;99738.63;;;0.26;58.45
27685;BME280;46113;50.130;8.526;2023-03-04T10:13:15;99730.81;;;0.22;58.54
27685;BME280;46113;50.130;8.526;2023-03-04T10:15:47;99724.59;;;0.45;59.14
27685;BME280;46113;50.130;8.526;2023-03-04T10:18:23;99736.78;;;0.39;58.83
27685;BME280;46113;50.130;8.526;2023-03-04T10:20:57;99731.94;;;-0.11;59.98
27685;BME280;46113;50.130;8.526;2023-03-04T10:23:28;99731.91;;;-0.06;59.40
27685;BME280;46113;50.130;8.526;2023-03-04T10:25:55;99731.63;;;0.35;59.32
27685;BME280;46113;50.130;8.526;2023-03-04T10:28:28;99733.00;;;0.73;57.76
27685;BME280;46113;50.130;8.526;2023-03-04T10:31:04;99721.53;;;0.91;57.58
27685;BME280;46113;50.130;8.526;2023-03-04T10:33:37;99715.44;;;0.92;56.86
27685;BME280;46113;50.130;8.526;2023-03-04T10:36:05;99718.34;;;0.61;57.72
27685;BME280;46113;50.130;8.526;2023-03-04T10:38:42;99719.69;;;1.04;56.44
27685;BME280;46113;50.130;8.526;2023-03-04T10:41:16;99717.22;;;0.90;56.95
27685;BME280;46113;50.130;8.526;2023-03-04T10:43:49;99717.59;;;0.50;57.50
27685;BME280;46113;50.130;8.526;2023-03-04T10:46:16;99716.28;;;0.96;57.69
27685;BME280;46113;50.130;8.526;2023-03-04T10:48:43;99717.16;;;0.95;57.40
27685;BME280;46113;50.130;8.526;2023-03-04T10:53:51;99715.44;;;0.92;58.02
27685;BME280;46113;50.130;8.526;2023-03-04T10:56:31;99708.63;;;1.59;55.01
27685;BME280;46113;50.130;8.526;2023-03-04T11:01:53;99701.34;;;1.14;56.65
27685;BME280;46113;50.130;8.526;2023-03-04T11:04:23;99706.56;;;1.15;56.61
27685;BME280;46113;50.130;8.526;2023-03-04T11:06:53;99706.38;;;0.43;57.38
27685;BME280;46113;50.130;8.526;2023-03-04T11:09:25;99701.81;;;0.68;57.64
27685;BME280;46113;50.130;8.526;2023-03-04T11:12:00;99697.81;;;1.19;56.86
27685;BME280;46113;50.130;8.526;2023-03-04T11:14:35;99700.81;;;1.59;55.42
27685;BME280;46113;50.130;8.526;2023-03-04T11:17:17;99695.63;;;0.77;56.88
27685;BME280;46113;50.130;8.526;2023-03-04T11:19:47;99694.94;;;1.41;56.11
27685;BME280;46113;50.130;8.526;2023-03-04T11:22:29;99684.94;;;1.74;55.70
27685;BME280;46113;50.130;8.526;2023-03-04T11:25:09;99690.44;;;2.12;54.96
27685;BME280;46113;50.130;8.526;2023-03-04T11:27:54;99692.31;;;1.41;56.61
27685;BME280;46113;50.130;8.526;2023-03-04T11:30:42;99691.06;;;1.01;56.82
27685;BME280;46113;50.130;8.526;2023-03-04T11:33:19;99684.06;;;1.72;56.28
27685;BME280;46113;50.130;8.526;2023-03-04T11:36:21;99681.41;;;1.09;56.70
27685;BME280;46113;50.130;8.526;2023-03-04T11:38:57;99684.16;;;0.03;59.79
27685;BME280;46113;50.130;8.526;2023-03-04T11:41:41;99672.91;;;0.90;57.65
27685;BME280;46113;50.130;8.526;2023-03-04T11:44:19;99683.66;;;0.59;58.63
27685;BME280;46113;50.130;8.526;2023-03-04T11:50:47;99673.41;;;1.88;55.58
27685;BME280;46113;50.130;8.526;2023-03-04T18:42:35;99443.22;;;-0.14;70.82
27685;BME280;46113;50.130;8.526;2023-03-04T18:45:33;99448.16;;;0.11;70.00
27685;BME280;46113;50.130;8.526;2023-03-04T18:48:08;99448.84;;;0.24;71.13
27685;BME280;46113;50.130;8.526;2023-03-04T18:50:35;99452.53;;;0.08;71.11
27685;BME280;46113;50.130;8.526;2023-03-04T18:53:02;99449.94;;;0.08;71.96
27685;BME280;46113;50.130;8.526;2023-03-04T18:55:29;99444.44;;;0.31;69.85
27685;BME280;46113;50.130;8.526;2023-03-04T18:57:57;99437.41;;;0.38;68.92
27685;BME280;46113;50.130;8.526;2023-03-04T19:00:26;99441.78;;;0.37;70.34
27685;BME280;46113;50.130;8.526;2023-03-04T19:03:05;99444.41;;;0.36;70.68
27685;BME280;46113;50.130;8.526;2023-03-04T19:05:34;99441.78;;;0.37;71.61
27685;BME280;46113;50.130;8.526;2023-03-04T19:08:01;99440.00;;;0.41;70.85
27685;BME280;46113;50.130;8.526;2023-03-04T19:10:28;99441.63;;;0.47;70.75
27685;BME280;46113;50.130;8.526;2023-03-04T19:12:55;99445.31;;;0.32;71.45
27685;BME280;46113;50.130;8.526;2023-03-04T19:15:25;99442.13;;;0.08;73.89
27685;BME280;46113;50.130;8.526;2023-03-04T19:17:54;99437.06;;;-0.05;75.71
27685;BME280;46113;50.130;8.526;2023-03-04T19:20:21;99440.22;;;0.22;74.03
27685;BME280;46113;50.130;8.526;2023-03-04T19:22:49;99438.88;;;-0.10;74.05
27685;BME280;46113;50.130;8.526;2023-03-04T19:25:16;99443.81;;;0.13;73.85
27685;BME280;46113;50.130;8.526;2023-03-04T19:27:43;99441.38;;;-0.04;74.65
27685;BME280;46113;50.130;8.526;2023-03-04T19:30:10;99447.31;;;0.11;74.42
27685;BME280;46113;50.130;8.526;2023-03-04T19:32:37;99446.28;;;0.23;73.37
27685;BME280;46113;50.130;8.526;2023-03-04T19:35:04;99442.00;;;0.20;74.16
27685;BME280;46113;50.130;8.526;2023-03-04T19:37:31;99448.09;;;0.18;74.03
27685;BME280;46113;50.130;8.526;2023-03-04T19:39:57;99435.47;;;-0.20;74.48
27685;BME280;46113;50.130;8.526;2023-03-04T19:42:24;99434.50;;;-0.08;75.32
27685;BME280;46113;50.130;8.526;2023-03-04T19:44:51;99433.56;;;-0.01;74.95
27685;BME280;46113;50.130;8.526;2023-03-04T19:47:17;99432.69;;;-0.03;74.00
27685;BME280;46113;50.130;8.526;2023-03-04T19:49:44;99430.88;;;0.06;73.53
27685;BME280;46113;50.130;8.526;2023-03-04T19:52:11;99430.72;;;0.20;73.55
27685;BME280;46113;50.130;8.526;2023-03-04T19:54:38;99433.38;;;0.13;75.29
27685;BME280;46113;50.130;8.526;2023-03-04T19:57:04;99430.09;;;-0.03;74.92
27685;BME280;46113;50.130;8.526;2023-03-04T19:59:33;99418.09;;;-0.15;76.01
27685;BME280;46113;50.130;8.526;2023-03-04T20:02:03;99420.50;;;0.04;75.83
27685;BME280;46113;50.130;8.526;2023-03-04T20:04:29;99428.19;;;0.15;75.96
27685;BME280;46113;50.130;8.526;2023-03-04T20:06:56;99426.38;;;0.20;75.09
27685;BME280;46113;50.130;8.526;2023-03-04T20:09:23;99433.41;;;0.10;76.74
27685;BME280;46113;50.130;8.526;2023-03-04T20:11:50;99430.00;;;0.07;75.26
27685;BME280;46113;50.130;8.526;2023-03-04T20:14:30;99427.38;;;0.08;75.82